Time;durP1;ratioP1;P1;durP2;ratioP2;P2;SDS_P1;SDS_P2;PMS_P1;PMS_P2;Temp;Humidity;BMP_temperature;BMP_pressure;BME280_temperature;BME280_humidity;BME280_pressure;Samples;Min_cycle;Max_cycle;Signal;HPM_P1;HPM_P2
2023/07/08 00:06:03;;;;;;;26.50;17.10;;;;;;;14.93;62.37;99239.53;433908;1258;111824;-42
2023/07/08 00:16:10;;;;;;;24.10;15.70;;;;;;;15.00;62.49;99238.32;433364;1257;377031;-42
2023/07/08 00:26:16;;;;;;;23.40;15.80;;;;;;;14.92;62.71;99244.79;433531;1257;96615;-42
2023/07/08 00:36:25;;;;;;;24.20;16.50;;;;;;;14.77;63.27;99243.27;433665;1260;110133;-42
2023/07/08 00:46:35;;;;;;;29.60;18.20;;;;;;;14.76;64.40;99242.73;433642;1261;108007;-43
2023/07/08 00:56:42;;;;;;;29.60;17.10;;;;;;;14.68;64.81;99232.23;433688;1257;97919;-41
2023/07/08 01:06:58;;;;;;;47.10;38.00;;;;;;;14.60;65.21;99223.66;434398;1257;108398;-39
2023/07/08 01:17:06;;;;;;;65.20;53.10;;;;;;;14.42;65.64;99220.42;434065;1257;97953;-43
2023/07/08 01:27:14;;;;;;;32.70;23.20;;;;;;;14.25;66.33;99220.10;434275;1256;109917;-42
2023/07/08 01:37:22;;;;;;;26.00;18.70;;;;;;;14.14;66.80;99217.95;434056;1270;107900;-42
2023/07/08 01:47:28;;;;;;;29.00;17.40;;;;;;;14.11;66.92;99212.90;434012;1256;97890;-43
2023/07/08 01:57:36;;;;;;;24.20;15.90;;;;;;;14.07;67.00;99211.33;434112;1255;108529;-42
2023/07/08 02:07:43;;;;;;;25.60;19.10;;;;;;;13.94;67.29;99208.37;434040;1256;96993;-43
2023/07/08 02:27:57;;;;;;;20.60;15.60;;;;;;;13.60;67.76;99215.98;434106;1259;106966;-43
2023/07/08 02:38:04;;;;;;;18.10;15.10;;;;;;;13.54;67.95;99213.74;434101;1257;97883;-43
2023/07/08 02:48:11;;;;;;;27.30;14.50;;;;;;;13.71;68.26;99217.06;434073;1261;110459;-43
2023/07/08 02:58:18;;;;;;;25.30;17.20;;;;;;;13.72;68.05;99220.32;434043;1257;107314;-43
2023/07/08 03:08:25;;;;;;;22.70;16.80;;;;;;;13.65;68.26;99225.48;434144;1259;97918;-42
2023/07/08 03:18:38;;;;;;;23.30;15.90;;;;;;;13.70;68.26;99228.36;434100;1260;109104;-43
2023/07/08 03:28:45;;;;;;;36.20;25.90;;;;;;;15.05;68.00;99232.47;434040;1260;107567;-43
2023/07/08 03:38:50;;;;;;;25.60;20.10;;;;;;;17.47;66.27;99232.36;434063;1260;97887;-42
2023/07/08 03:48:57;;;;;;;20.00;16.10;;;;;;;19.24;64.27;99224.80;434137;1257;110433;-46
2023/07/08 03:59:03;;;;;;;17.70;14.30;;;;;;;20.76;62.14;99216.17;433995;1256;108305;-43
2023/07/08 04:09:11;;;;;;;15.80;10.70;;;;;;;22.06;60.39;99210.69;433948;1256;97880;-43
2023/07/08 04:19:18;;;;;;;15.70;10.10;;;;;;;23.30;58.27;99211.25;433994;1260;110296;-42
2023/07/08 04:29:25;;;;;;;15.70;9.00;;;;;;;24.34;56.50;99211.52;434058;1260;108542;-41
2023/07/08 04:39:33;;;;;;;9.50;8.50;;;;;;;25.04;54.77;99211.02;433966;1256;97903;-41
2023/07/08 04:49:43;;;;;;;9.90;8.60;;;;;;;25.09;53.56;99204.67;434067;1261;109857;-42
2023/07/08 04:59:51;;;;;;;15.10;8.30;;;;;;;25.15;51.98;99206.36;434115;1260;106764;-43
2023/07/08 05:09:58;;;;;;;11.10;7.90;;;;;;;25.19;50.95;99205.55;433997;1260;97910;-41
2023/07/08 05:20:07;;;;;;;14.10;7.50;;;;;;;25.50;49.98;99200.16;434032;1256;110147;-42
2023/07/08 05:30:12;;;;;;;8.50;6.30;;;;;;;25.68;48.95;99197.73;434103;1260;108109;-41
2023/07/08 05:40:20;;;;;;;8.30;6.60;;;;;;;25.87;47.77;99193.25;434077;1256;97880;-42
2023/07/08 05:50:28;;;;;;;9.50;5.60;;;;;;;26.06;46.61;99200.20;434079;1261;110418;-41
2023/07/08 06:00:34;;;;;;;9.40;5.80;;;;;;;26.34;45.66;99204.49;434014;1261;108442;-44
2023/07/08 06:20:52;;;;;;;6.20;4.20;;;;;;;27.70;43.79;99207.80;434151;1256;97880;-42
2023/07/08 06:30:59;;;;;;;10.20;4.00;;;;;;;28.03;42.90;99205.62;434029;1260;108398;-42
2023/07/08 06:41:07;;;;;;;4.10;3.20;;;;;;;28.51;41.24;99208.58;434023;1260;97432;-42
2023/07/08 06:51:15;;;;;;;5.10;3.10;;;;;;;28.60;39.54;99216.02;434127;1261;107661;-42
2023/07/08 07:01:22;;;;;;;5.60;4.00;;;;;;;28.53;39.21;99219.60;434023;1260;97889;-43
2023/07/08 07:11:30;;;;;;;6.90;3.00;;;;;;;28.69;38.30;99219.45;434074;1260;111577;-44
2023/07/08 07:21:37;;;;;;;3.70;3.10;;;;;;;28.78;38.07;99216.77;433968;1260;107431;-44
2023/07/08 07:31:44;;;;;;;3.80;3.00;;;;;;;28.94;37.86;99215.36;434001;1256;96615;-43
2023/07/08 07:41:52;;;;;;;4.80;3.20;;;;;;;29.50;37.55;99221.84;433973;1258;110531;-46
2023/07/08 07:51:59;;;;;;;6.20;3.20;;;;;;;29.77;36.75;99206.98;434014;1260;110380;-43
2023/07/08 08:02:05;;;;;;;2.80;2.60;;;;;;;29.85;35.70;99213.21;434021;1256;97906;-42
2023/07/08 08:12:10;;;;;;;2.90;2.50;;;;;;;30.37;34.83;99219.14;434057;1256;110561;-43
2023/07/08 08:22:17;;;;;;;2.30;2.10;;;;;;;30.08;33.91;99217.48;434162;1256;97906;-43
2023/07/08 08:32:24;;;;;;;6.50;2.60;;;;;;;29.64;33.68;99216.21;433952;1256;97897;-44
2023/07/08 08:42:33;;;;;;;2.60;2.20;;;;;;;30.12;33.75;99220.27;434006;1256;110384;-42
2023/07/08 08:52:45;;;;;;;5.00;2.30;;;;;;;30.24;32.73;99212.05;433909;1260;109415;-44
2023/07/08 09:02:51;;;;;;;2.20;2.00;;;;;;;29.80;32.00;99204.40;434093;1259;97894;-43
2023/07/08 09:33:21;;;;;;;3.30;2.40;;;;;;;29.92;31.88;99201.12;433984;1260;97884;-43
2023/07/08 09:43:36;;;;;;;3.80;2.20;;;;;;;30.36;31.82;99192.92;433923;1256;107862;-42
2023/07/08 09:53:43;;;;;;;4.00;2.40;;;;;;;30.54;31.56;99188.96;433906;1257;97877;-42
2023/07/08 10:03:50;;;;;;;3.20;2.40;;;;;;;30.16;31.29;99186.73;434029;1256;112186;-47
2023/07/08 10:14:02;;;;;;;2.00;1.90;;;;;;;29.86;30.52;99180.42;433888;1262;108569;-42
2023/07/08 10:24:23;;;;;;;5.40;2.20;;;;;;;29.86;31.25;99166.27;434062;1256;97473;-44
2023/07/08 10:34:32;;;;;;;2.30;1.90;;;;;;;30.13;30.87;99167.30;434039;1256;109955;-43
2023/07/08 10:44:37;;;;;;;3.20;2.20;;;;;;;29.96;30.21;99160.09;434042;1262;109384;-43
2023/07/08 10:54:46;;;;;;;2.20;2.00;;;;;;;29.96;30.02;99158.56;434034;1257;97807;-43
2023/07/08 11:15:00;;;;;;;3.10;2.30;;;;;;;29.86;29.67;99131.69;434168;1262;106328;-42
2023/07/08 11:25:10;;;;;;;4.10;2.50;;;;;;;29.66;29.73;99126.19;434175;1256;97936;-43
2023/07/08 11:35:15;;;;;;;4.20;2.20;;;;;;;29.82;29.68;99116.70;433995;1262;109017;-43
2023/07/08 11:45:25;;;;;;;5.40;2.10;;;;;;;29.78;29.65;99108.39;434189;1256;97906;-42
2023/07/08 11:55:36;;;;;;;2.80;2.60;;;;;;;29.55;29.19;99113.40;434059;1260;110834;-42
2023/07/08 12:05:43;;;;;;;6.60;3.20;;;;;;;29.53;29.69;99104.61;433934;1260;108125;-41
2023/07/08 12:15:50;;;;;;;3.30;2.50;;;;;;;30.05;29.80;99104.20;433763;1256;436859;-42
2023/07/08 12:25:59;;;;;;;3.40;2.20;;;;;;;30.19;29.63;99097.04;434007;1260;110619;-43
2023/07/08 12:36:03;;;;;;;2.60;1.90;;;;;;;29.91;28.96;99085.95;434149;1256;107842;-43
2023/07/08 12:46:11;;;;;;;3.40;2.40;;;;;;;29.77;28.90;99081.58;434110;1260;98553;-41
2023/07/08 12:56:20;;;;;;;4.70;2.80;;;;;;;29.69;28.95;99073.40;434072;1260;110052;-46
2023/07/08 13:06:28;;;;;;;12.70;2.70;;;;;;;29.47;29.00;99060.59;434040;1260;108755;-43
2023/07/08 13:16:36;;;;;;;3.80;2.60;;;;;;;29.52;29.32;99056.16;434065;1260;97500;-41
2023/07/08 13:26:47;;;;;;;2.50;2.30;;;;;;;29.51;29.09;99048.90;434176;1260;110922;-43
2023/07/08 13:36:56;;;;;;;5.30;2.80;;;;;;;29.79;29.46;99052.74;434003;1262;108856;-42
2023/07/08 13:47:05;;;;;;;3.00;2.80;;;;;;;29.70;29.09;99039.95;433988;1262;96761;-41
2023/07/08 13:57:13;;;;;;;2.10;2.00;;;;;;;29.65;28.91;99036.52;434016;1260;109235;-42
2023/07/08 14:07:23;;;;;;;5.30;2.40;;;;;;;29.46;28.67;99033.19;434100;1256;108063;-42
2023/07/08 14:17:29;;;;;;;3.00;2.40;;;;;;;29.35;28.73;99030.92;433984;1256;97909;-41
2023/07/08 14:27:37;;;;;;;2.30;2.10;;;;;;;29.24;28.94;99027.77;434027;1256;110620;-41
2023/07/08 14:37:45;;;;;;;3.20;2.90;;;;;;;29.46;29.08;99022.84;434079;1260;108031;-42
2023/07/08 14:47:53;;;;;;;3.00;2.20;;;;;;;29.51;29.33;99016.14;433921;1260;97498;-42
2023/07/08 14:58:01;;;;;;;5.00;2.60;;;;;;;29.60;29.11;99003.71;434078;1262;111018;-42
2023/07/08 15:08:07;;;;;;;2.60;2.40;;;;;;;29.38;28.80;98995.73;434107;1260;106452;-42
2023/07/08 15:28:24;;;;;;;2.60;2.40;;;;;;;29.18;29.06;98988.61;434205;1256;109706;-41
2023/07/08 15:38:31;;;;;;;4.40;2.80;;;;;;;29.07;28.73;98985.40;434229;1260;109009;-41
2023/07/08 15:48:39;;;;;;;3.30;3.00;;;;;;;28.92;28.88;98981.60;433484;1261;97925;-42
2023/07/08 15:58:46;;;;;;;10.50;3.30;;;;;;;28.88;28.78;98978.08;434682;1259;111431;-41
2023/07/08 16:08:53;;;;;;;2.60;2.40;;;;;;;28.80;28.87;98972.90;433900;1269;108705;-41
2023/07/08 16:19:00;;;;;;;3.20;2.20;;;;;;;28.64;28.78;98971.08;434105;1263;97942;-42
2023/07/08 16:29:10;;;;;;;2.20;2.10;;;;;;;28.54;28.67;98971.45;433899;1262;111701;-41
2023/07/08 16:39:17;;;;;;;3.00;2.20;;;;;;;28.50;28.47;98969.90;434134;1263;108424;-41
2023/07/08 16:49:25;;;;;;;8.00;2.60;;;;;;;28.21;28.33;98968.25;433926;1261;97056;-42
2023/07/08 16:59:32;;;;;;;2.30;2.10;;;;;;;28.05;28.38;98969.33;433909;1269;107975;-42
2023/07/08 17:09:38;;;;;;;28.70;4.60;;;;;;;27.91;28.51;98966.00;434130;1260;97820;-41
2023/07/08 17:19:49;;;;;;;3.00;2.30;;;;;;;27.72;28.82;98963.77;434089;1257;109921;-41
2023/07/08 17:29:55;;;;;;;3.50;2.60;;;;;;;27.59;29.33;98959.57;434075;1258;107565;-41
2023/07/08 17:40:03;;;;;;;7.90;3.30;;;;;;;27.35;29.39;98957.54;434175;1263;97884;-42
2023/07/08 17:50:18;;;;;;;10.10;3.40;;;;;;;27.03;30.01;98959.97;433993;1269;109611;-42
2023/07/08 18:10:34;;;;;;;6.70;4.70;;;;;;;26.02;31.94;98953.73;434037;1257;118321;-41
2023/07/08 18:20:46;;;;;;;23.30;7.00;;;;;;;25.54;33.06;98954.44;433960;1261;109119;-41
2023/07/08 18:30:54;;;;;;;11.60;8.30;;;;;;;24.90;34.55;98952.73;434038;1257;96645;-42
2023/07/08 18:41:02;;;;;;;9.10;4.90;;;;;;;24.27;35.42;98950.11;433964;1261;109945;-44
2023/07/08 18:51:10;;;;;;;7.60;5.60;;;;;;;23.67;36.89;98954.01;433646;1260;109818;-42
2023/07/08 19:01:18;;;;;;;8.50;6.00;;;;;;;23.12;38.26;98966.77;433986;1257;96654;-44
2023/07/08 19:11:28;;;;;;;11.80;8.40;;;;;;;22.60;39.64;98978.92;433947;1261;111857;-44
2023/07/08 19:21:35;;;;;;;14.60;7.40;;;;;;;22.17;40.81;98979.09;433940;1257;108262;-43
2023/07/08 19:31:48;;;;;;;13.50;7.40;;;;;;;21.75;41.66;98983.83;433979;1258;97093;-42
2023/07/08 19:41:55;;;;;;;9.80;7.20;;;;;;;21.39;42.47;98990.72;433938;1260;110678;-40
2023/07/08 19:52:03;;;;;;;11.30;7.30;;;;;;;20.99;43.40;98989.42;433947;1259;107278;-41
2023/07/08 20:02:13;;;;;;;13.90;8.10;;;;;;;20.67;44.42;98986.16;433984;1257;97479;-42
2023/07/08 20:12:20;;;;;;;16.90;9.60;;;;;;;20.29;45.15;98983.61;434065;1261;110114;-41
2023/07/08 20:22:28;;;;;;;12.70;8.60;;;;;;;19.99;45.96;98986.79;433904;1261;108162;-43
2023/07/08 20:32:38;;;;;;;29.60;11.80;;;;;;;19.68;47.07;98996.65;433903;1256;97953;-42
2023/07/08 20:42:47;;;;;;;22.70;16.90;;;;;;;19.45;48.06;98999.15;434001;1258;110298;-43
2023/07/08 20:52:55;;;;;;;15.80;10.80;;;;;;;19.13;48.66;99003.77;433740;1257;108708;-42
2023/07/08 21:03:02;;;;;;;13.00;11.20;;;;;;;19.05;49.02;99006.83;433806;1256;97893;-42
2023/07/08 21:13:10;;;;;;;20.20;10.90;;;;;;;18.99;49.38;99014.27;433991;1260;109917;-41
2023/07/08 21:23:18;;;;;;;20.80;14.00;;;;;;;18.76;49.86;99014.93;433802;1258;106549;-42
2023/07/08 21:33:25;;;;;;;29.00;17.00;;;;;;;18.61;50.61;99014.09;433933;1256;98017;-43
2023/07/08 21:43:31;;;;;;;25.30;17.00;;;;;;;18.43;50.92;99018.31;433930;1261;110619;-42
2023/07/08 21:53:39;;;;;;;22.10;15.70;;;;;;;18.28;52.01;99013.64;433842;1261;109110;-41
2023/07/08 22:03:47;;;;;;;27.10;18.60;;;;;;;18.30;52.72;99012.88;433955;1261;98041;-42
2023/07/08 22:13:57;;;;;;;25.70;18.90;;;;;;;18.37;52.92;99011.46;433883;1256;109705;-40
2023/07/08 22:24:07;;;;;;;18.90;13.10;;;;;;;18.29;52.94;99008.66;433996;1260;108107;-42
2023/07/08 22:34:17;;;;;;;17.00;11.60;;;;;;;18.20;52.52;99008.77;433774;1256;97887;-42
2023/07/08 22:44:24;;;;;;;12.70;10.90;;;;;;;18.19;52.38;99009.67;434007;1256;110256;-41
2023/07/08 22:54:31;;;;;;;14.60;9.90;;;;;;;18.18;52.22;99007.38;433902;1256;108488;-42
2023/07/08 23:04:39;;;;;;;13.20;9.10;;;;;;;18.13;52.42;99006.42;434031;1257;96589;-42
2023/07/08 23:14:46;;;;;;;16.50;9.90;;;;;;;18.01;52.53;99011.31;434084;1257;111574;-41
2023/07/08 23:24:52;;;;;;;12.60;8.80;;;;;;;17.97;52.62;99011.30;433911;1256;106521;-41
2023/07/08 23:35:00;;;;;;;10.00;8.30;;;;;;;17.94;52.43;99010.34;433951;1260;97772;-42
2023/07/08 23:45:11;;;;;;;10.50;7.70;;;;;;;17.82;52.52;99007.14;433900;1256;111664;-42
2023/07/08 23:55:18;;;;;;;11.00;7.50;;;;;;;17.65;52.62;99015.40;433792;1260;107630;-41
